sensor_id;sensor_type;location;lat;lon;timestamp;P1;durP1;ratioP1;P2;durP2;ratioP2
18875;SDS011;9570;50.854;13.778;2024-01-30T00:02:16;13.97;;;6.40;;
18875;SDS011;9570;50.854;13.778;2024-01-30T00:04:41;11.00;;;7.30;;
18875;SDS011;9570;50.854;13.778;2024-01-30T00:07:07;15.47;;;6.90;;
18875;SDS011;9570;50.854;13.778;2024-01-30T00:09:32;12.67;;;7.53;;
18875;SDS011;9570;50.854;13.778;2024-01-30T00:11:58;13.37;;;7.47;;
18875;SDS011;9570;50.854;13.778;2024-01-30T00:14:23;11.90;;;7.40;;
18875;SDS011;9570;50.854;13.778;2024-01-30T00:16:50;12.07;;;7.40;;
18875;SDS011;9570;50.854;13.778;2024-01-30T00:19:16;13.40;;;7.10;;
18875;SDS011;9570;50.854;13.778;2024-01-30T00:21:41;11.70;;;6.73;;
18875;SDS011;9570;50.854;13.778;2024-01-30T00:24:07;13.03;;;6.93;;
18875;SDS011;9570;50.854;13.778;2024-01-30T00:26:32;13.00;;;7.73;;
18875;SDS011;9570;50.854;13.778;2024-01-30T00:28:58;14.97;;;7.53;;
18875;SDS011;9570;50.854;13.778;2024-01-30T00:31:23;14.30;;;7.43;;
18875;SDS011;9570;50.854;13.778;2024-01-30T00:33:49;14.37;;;7.80;;
18875;SDS011;9570;50.854;13.778;2024-01-30T00:36:14;15.80;;;9.13;;
18875;SDS011;9570;50.854;13.778;2024-01-30T00:38:40;13.43;;;7.73;;
18875;SDS011;9570;50.854;13.778;2024-01-30T00:41:06;14.30;;;8.27;;
18875;SDS011;9570;50.854;13.778;2024-01-30T00:43:32;14.20;;;8.03;;
18875;SDS011;9570;50.854;13.778;2024-01-30T00:45:58;13.63;;;8.03;;
18875;SDS011;9570;50.854;13.778;2024-01-30T00:48:24;13.40;;;7.77;;
18875;SDS011;9570;50.854;13.778;2024-01-30T00:50:49;12.23;;;7.83;;
18875;SDS011;9570;50.854;13.778;2024-01-30T00:53:15;17.30;;;9.27;;
18875;SDS011;9570;50.854;13.778;2024-01-30T00:55:40;13.23;;;8.33;;
18875;SDS011;9570;50.854;13.778;2024-01-30T00:58:06;12.63;;;7.67;;
18875;SDS011;9570;50.854;13.778;2024-01-30T01:00:32;15.13;;;8.67;;
18875;SDS011;9570;50.854;13.778;2024-01-30T01:02:57;17.73;;;8.53;;
18875;SDS011;9570;50.854;13.778;2024-01-30T01:05:23;14.17;;;8.80;;
18875;SDS011;9570;50.854;13.778;2024-01-30T01:07:49;15.20;;;8.90;;
18875;SDS011;9570;50.854;13.778;2024-01-30T01:10:14;15.50;;;9.00;;
18875;SDS011;9570;50.854;13.778;2024-01-30T01:12:41;16.20;;;8.93;;
18875;SDS011;9570;50.854;13.778;2024-01-30T01:15:07;17.73;;;8.97;;
18875;SDS011;9570;50.854;13.778;2024-01-30T01:17:34;14.97;;;9.53;;
18875;SDS011;9570;50.854;13.778;2024-01-30T01:20:00;18.53;;;9.20;;
18875;SDS011;9570;50.854;13.778;2024-01-30T01:22:26;16.57;;;8.97;;
18875;SDS011;9570;50.854;13.778;2024-01-30T01:24:52;16.93;;;9.23;;
18875;SDS011;9570;50.854;13.778;2024-01-30T01:27:17;17.07;;;9.40;;
18875;SDS011;9570;50.854;13.778;2024-01-30T01:29:43;16.80;;;8.90;;
18875;SDS011;9570;50.854;13.778;2024-01-30T01:32:08;15.20;;;8.97;;
18875;SDS011;9570;50.854;13.778;2024-01-30T01:34:34;15.73;;;9.00;;
18875;SDS011;9570;50.854;13.778;2024-01-30T01:36:59;14.23;;;9.00;;
18875;SDS011;9570;50.854;13.778;2024-01-30T01:39:25;15.40;;;9.30;;
18875;SDS011;9570;50.854;13.778;2024-01-30T01:41:51;14.03;;;8.73;;
18875;SDS011;9570;50.854;13.778;2024-01-30T01:44:17;17.97;;;9.50;;
18875;SDS011;9570;50.854;13.778;2024-01-30T01:46:43;16.53;;;9.83;;
18875;SDS011;9570;50.854;13.778;2024-01-30T01:49:09;14.93;;;8.97;;
18875;SDS011;9570;50.854;13.778;2024-01-30T01:51:35;18.37;;;10.23;;
18875;SDS011;9570;50.854;13.778;2024-01-30T01:54:02;18.03;;;10.07;;
18875;SDS011;9570;50.854;13.778;2024-01-30T01:56:30;15.83;;;9.97;;
18875;SDS011;9570;50.854;13.778;2024-01-30T01:58:59;16.57;;;8.87;;
18875;SDS011;9570;50.854;13.778;2024-01-30T02:01:29;13.53;;;9.70;;
18875;SDS011;9570;50.854;13.778;2024-01-30T02:03:56;18.03;;;10.10;;
18875;SDS011;9570;50.854;13.778;2024-01-30T02:06:21;16.57;;;9.97;;
18875;SDS011;9570;50.854;13.778;2024-01-30T02:08:47;16.30;;;9.43;;
18875;SDS011;9570;50.854;13.778;2024-01-30T02:11:13;15.27;;;8.53;;
18875;SDS011;9570;50.854;13.778;2024-01-30T02:13:38;17.43;;;8.87;;
18875;SDS011;9570;50.854;13.778;2024-01-30T02:16:05;13.67;;;8.80;;
18875;SDS011;9570;50.854;13.778;2024-01-30T02:18:31;13.73;;;8.77;;
18875;SDS011;9570;50.854;13.778;2024-01-30T02:20:56;15.97;;;9.50;;
18875;SDS011;9570;50.854;13.778;2024-01-30T02:23:26;15.17;;;8.73;;
18875;SDS011;9570;50.854;13.778;2024-01-30T02:25:52;13.17;;;8.60;;
18875;SDS011;9570;50.854;13.778;2024-01-30T02:28:18;11.10;;;8.23;;
18875;SDS011;9570;50.854;13.778;2024-01-30T02:30:45;13.10;;;8.40;;
18875;SDS011;9570;50.854;13.778;2024-01-30T02:33:11;14.83;;;8.33;;
18875;SDS011;9570;50.854;13.778;2024-01-30T02:35:37;14.80;;;8.37;;
18875;SDS011;9570;50.854;13.778;2024-01-30T02:38:02;13.33;;;8.93;;
18875;SDS011;9570;50.854;13.778;2024-01-30T02:40:28;14.90;;;8.67;;
18875;SDS011;9570;50.854;13.778;2024-01-30T02:42:53;14.77;;;8.70;;
18875;SDS011;9570;50.854;13.778;2024-01-30T02:45:19;14.37;;;8.33;;
18875;SDS011;9570;50.854;13.778;2024-01-30T02:47:45;16.43;;;8.70;;
18875;SDS011;9570;50.854;13.778;2024-01-30T02:50:11;14.87;;;8.43;;
18875;SDS011;9570;50.854;13.778;2024-01-30T02:52:36;16.30;;;8.23;;
18875;SDS011;9570;50.854;13.778;2024-01-30T02:55:02;11.57;;;8.13;;
18875;SDS011;9570;50.854;13.778;2024-01-30T02:57:28;13.17;;;8.30;;
18875;SDS011;9570;50.854;13.778;2024-01-30T02:59:54;11.68;;;7.13;;
18875;SDS011;9570;50.854;13.778;2024-01-30T03:02:19;14.13;;;8.50;;
18875;SDS011;9570;50.854;13.778;2024-01-30T03:04:45;12.93;;;9.07;;
18875;SDS011;9570;50.854;13.778;2024-01-30T03:07:10;12.83;;;8.10;;
18875;SDS011;9570;50.854;13.778;2024-01-30T03:09:36;12.67;;;7.87;;
18875;SDS011;9570;50.854;13.778;2024-01-30T03:12:02;16.83;;;8.40;;
18875;SDS011;9570;50.854;13.778;2024-01-30T03:14:30;17.35;;;8.48;;
18875;SDS011;9570;50.854;13.778;2024-01-30T03:16:56;13.55;;;7.75;;
18875;SDS011;9570;50.854;13.778;2024-01-30T03:19:21;14.50;;;7.73;;
18875;SDS011;9570;50.854;13.778;2024-01-30T03:21:46;11.87;;;6.97;;
18875;SDS011;9570;50.854;13.778;2024-01-30T03:24:12;12.13;;;7.43;;
18875;SDS011;9570;50.854;13.778;2024-01-30T03:26:37;12.43;;;7.23;;
18875;SDS011;9570;50.854;13.778;2024-01-30T03:29:03;11.10;;;6.83;;
18875;SDS011;9570;50.854;13.778;2024-01-30T03:31:28;11.13;;;7.30;;
18875;SDS011;9570;50.854;13.778;2024-01-30T03:33:54;11.50;;;7.00;;
18875;SDS011;9570;50.854;13.778;2024-01-30T03:36:19;12.80;;;7.67;;
18875;SDS011;9570;50.854;13.778;2024-01-30T03:38:45;10.40;;;6.53;;
18875;SDS011;9570;50.854;13.778;2024-01-30T03:41:10;11.70;;;6.90;;
18875;SDS011;9570;50.854;13.778;2024-01-30T03:43:36;12.47;;;6.90;;
18875;SDS011;9570;50.854;13.778;2024-01-30T03:46:02;12.30;;;6.90;;
18875;SDS011;9570;50.854;13.778;2024-01-30T03:48:28;11.18;;;7.13;;
18875;SDS011;9570;50.854;13.778;2024-01-30T03:50:54;12.45;;;7.28;;
18875;SDS011;9570;50.854;13.778;2024-01-30T03:53:19;12.73;;;6.83;;
18875;SDS011;9570;50.854;13.778;2024-01-30T03:55:45;13.27;;;7.27;;
18875;SDS011;9570;50.854;13.778;2024-01-30T03:58:10;12.83;;;6.83;;
18875;SDS011;9570;50.854;13.778;2024-01-30T04:00:36;11.83;;;6.67;;
18875;SDS011;9570;50.854;13.778;2024-01-30T04:03:01;16.40;;;7.60;;
18875;SDS011;9570;50.854;13.778;2024-01-30T04:05:27;13.80;;;6.93;;
18875;SDS011;9570;50.854;13.778;2024-01-30T04:07:52;15.07;;;7.17;;
18875;SDS011;9570;50.854;13.778;2024-01-30T04:10:18;12.33;;;6.77;;
18875;SDS011;9570;50.854;13.778;2024-01-30T04:12:43;11.80;;;6.80;;
18875;SDS011;9570;50.854;13.778;2024-01-30T04:15:09;12.63;;;6.73;;
18875;SDS011;9570;50.854;13.778;2024-01-30T04:17:34;11.53;;;6.77;;
18875;SDS011;9570;50.854;13.778;2024-01-30T04:20:00;15.00;;;7.37;;
18875;SDS011;9570;50.854;13.778;2024-01-30T04:22:25;10.33;;;6.87;;
18875;SDS011;9570;50.854;13.778;2024-01-30T04:24:51;11.83;;;7.17;;
18875;SDS011;9570;50.854;13.778;2024-01-30T04:27:16;12.17;;;7.10;;
18875;SDS011;9570;50.854;13.778;2024-01-30T04:29:42;13.00;;;6.67;;
18875;SDS011;9570;50.854;13.778;2024-01-30T04:32:07;9.83;;;6.57;;
18875;SDS011;9570;50.854;13.778;2024-01-30T04:34:34;14.02;;;7.00;;
18875;SDS011;9570;50.854;13.778;2024-01-30T04:37:00;9.98;;;6.07;;
18875;SDS011;9570;50.854;13.778;2024-01-30T04:39:26;13.33;;;5.97;;
18875;SDS011;9570;50.854;13.778;2024-01-30T04:41:51;8.77;;;5.40;;
18875;SDS011;9570;50.854;13.778;2024-01-30T04:44:17;10.93;;;6.30;;
18875;SDS011;9570;50.854;13.778;2024-01-30T04:46:42;12.63;;;6.33;;
18875;SDS011;9570;50.854;13.778;2024-01-30T04:49:08;9.07;;;5.90;;
18875;SDS011;9570;50.854;13.778;2024-01-30T04:51:33;8.87;;;5.83;;
18875;SDS011;9570;50.854;13.778;2024-01-30T04:53:59;9.50;;;6.20;;
18875;SDS011;9570;50.854;13.778;2024-01-30T04:56:24;10.13;;;6.07;;
18875;SDS011;9570;50.854;13.778;2024-01-30T04:58:50;9.97;;;6.30;;
18875;SDS011;9570;50.854;13.778;2024-01-30T05:01:15;10.90;;;6.23;;
18875;SDS011;9570;50.854;13.778;2024-01-30T05:03:41;10.20;;;6.40;;
18875;SDS011;9570;50.854;13.778;2024-01-30T05:06:07;12.60;;;6.40;;
18875;SDS011;9570;50.854;13.778;2024-01-30T05:08:32;10.73;;;6.77;;
18875;SDS011;9570;50.854;13.778;2024-01-30T05:11:01;11.13;;;6.47;;
18875;SDS011;9570;50.854;13.778;2024-01-30T05:13:28;10.52;;;6.60;;
18875;SDS011;9570;50.854;13.778;2024-01-30T05:15:57;11.10;;;7.00;;
18875;SDS011;9570;50.854;13.778;2024-01-30T05:18:22;12.60;;;7.87;;
18875;SDS011;9570;50.854;13.778;2024-01-30T05:20:49;14.03;;;8.23;;
18875;SDS011;9570;50.854;13.778;2024-01-30T05:23:15;13.75;;;7.68;;
18875;SDS011;9570;50.854;13.778;2024-01-30T05:25:40;11.90;;;7.83;;
18875;SDS011;9570;50.854;13.778;2024-01-30T05:28:06;12.47;;;7.50;;
18875;SDS011;9570;50.854;13.778;2024-01-30T05:30:31;12.30;;;7.30;;
18875;SDS011;9570;50.854;13.778;2024-01-30T05:32:57;12.57;;;7.67;;
18875;SDS011;9570;50.854;13.778;2024-01-30T05:35:22;14.63;;;8.20;;
18875;SDS011;9570;50.854;13.778;2024-01-30T05:37:48;14.17;;;8.50;;
18875;SDS011;9570;50.854;13.778;2024-01-30T05:40:14;13.93;;;8.35;;
18875;SDS011;9570;50.854;13.778;2024-01-30T05:42:40;12.33;;;7.77;;
18875;SDS011;9570;50.854;13.778;2024-01-30T05:45:05;12.33;;;8.00;;
18875;SDS011;9570;50.854;13.778;2024-01-30T05:47:31;13.20;;;8.23;;
18875;SDS011;9570;50.854;13.778;2024-01-30T05:49:56;13.53;;;8.33;;
18875;SDS011;9570;50.854;13.778;2024-01-30T05:52:22;13.63;;;8.03;;
18875;SDS011;9570;50.854;13.778;2024-01-30T05:54:47;14.87;;;7.80;;
18875;SDS011;9570;50.854;13.778;2024-01-30T05:57:13;11.63;;;7.63;;
18875;SDS011;9570;50.854;13.778;2024-01-30T05:59:38;15.40;;;8.20;;
18875;SDS011;9570;50.854;13.778;2024-01-30T06:02:04;13.27;;;7.97;;
18875;SDS011;9570;50.854;13.778;2024-01-30T06:04:29;14.13;;;8.13;;
18875;SDS011;9570;50.854;13.778;2024-01-30T06:06:55;15.90;;;7.53;;
18875;SDS011;9570;50.854;13.778;2024-01-30T06:09:20;14.47;;;7.83;;
18875;SDS011;9570;50.854;13.778;2024-01-30T06:11:46;15.83;;;8.00;;
18875;SDS011;9570;50.854;13.778;2024-01-30T06:14:11;13.33;;;7.93;;
18875;SDS011;9570;50.854;13.778;2024-01-30T06:16:36;13.23;;;7.97;;
18875;SDS011;9570;50.854;13.778;2024-01-30T06:19:02;10.80;;;8.00;;
18875;SDS011;9570;50.854;13.778;2024-01-30T06:21:27;15.10;;;7.93;;
18875;SDS011;9570;50.854;13.778;2024-01-30T06:23:53;16.03;;;7.83;;
18875;SDS011;9570;50.854;13.778;2024-01-30T06:26:18;14.00;;;7.70;;
18875;SDS011;9570;50.854;13.778;2024-01-30T06:28:44;13.43;;;7.93;;
18875;SDS011;9570;50.854;13.778;2024-01-30T06:31:09;13.73;;;7.73;;
18875;SDS011;9570;50.854;13.778;2024-01-30T06:33:35;14.73;;;7.67;;
18875;SDS011;9570;50.854;13.778;2024-01-30T06:36:00;13.07;;;7.93;;
18875;SDS011;9570;50.854;13.778;2024-01-30T06:38:26;12.37;;;7.07;;
18875;SDS011;9570;50.854;13.778;2024-01-30T06:40:51;13.27;;;6.93;;
18875;SDS011;9570;50.854;13.778;2024-01-30T06:43:17;14.37;;;7.30;;
18875;SDS011;9570;50.854;13.778;2024-01-30T06:45:42;12.20;;;7.77;;
18875;SDS011;9570;50.854;13.778;2024-01-30T06:48:07;10.87;;;7.33;;
18875;SDS011;9570;50.854;13.778;2024-01-30T06:50:33;11.80;;;7.27;;
18875;SDS011;9570;50.854;13.778;2024-01-30T06:52:58;14.10;;;8.07;;
18875;SDS011;9570;50.854;13.778;2024-01-30T06:55:24;12.13;;;7.53;;
18875;SDS011;9570;50.854;13.778;2024-01-30T06:57:49;12.17;;;7.13;;
18875;SDS011;9570;50.854;13.778;2024-01-30T07:00:15;11.27;;;7.37;;
18875;SDS011;9570;50.854;13.778;2024-01-30T07:02:41;11.43;;;6.82;;
18875;SDS011;9570;50.854;13.778;2024-01-30T07:05:06;14.40;;;6.93;;
18875;SDS011;9570;50.854;13.778;2024-01-30T07:07:32;13.43;;;6.77;;
18875;SDS011;9570;50.854;13.778;2024-01-30T07:09:58;17.00;;;7.40;;
18875;SDS011;9570;50.854;13.778;2024-01-30T07:12:23;11.93;;;7.30;;
18875;SDS011;9570;50.854;13.778;2024-01-30T07:14:52;14.52;;;7.47;;
18875;SDS011;9570;50.854;13.778;2024-01-30T07:17:18;13.27;;;6.97;;
18875;SDS011;9570;50.854;13.778;2024-01-30T07:19:43;12.37;;;6.63;;
18875;SDS011;9570;50.854;13.778;2024-01-30T07:22:09;9.87;;;6.37;;
18875;SDS011;9570;50.854;13.778;2024-01-30T07:24:34;13.03;;;7.00;;
18875;SDS011;9570;50.854;13.778;2024-01-30T07:27:00;11.23;;;6.70;;
18875;SDS011;9570;50.854;13.778;2024-01-30T07:29:25;14.33;;;6.83;;
18875;SDS011;9570;50.854;13.778;2024-01-30T07:31:51;13.90;;;7.47;;
18875;SDS011;9570;50.854;13.778;2024-01-30T07:34:16;11.70;;;7.33;;
18875;SDS011;9570;50.854;13.778;2024-01-30T07:36:42;11.87;;;6.70;;
18875;SDS011;9570;50.854;13.778;2024-01-30T07:39:07;14.17;;;7.37;;
18875;SDS011;9570;50.854;13.778;2024-01-30T07:41:33;14.13;;;7.00;;
18875;SDS011;9570;50.854;13.778;2024-01-30T07:43:58;14.40;;;7.40;;
18875;SDS011;9570;50.854;13.778;2024-01-30T07:46:24;16.60;;;7.57;;
18875;SDS011;9570;50.854;13.778;2024-01-30T07:48:49;10.80;;;6.63;;
18875;SDS011;9570;50.854;13.778;2024-01-30T07:51:15;12.57;;;7.40;;
18875;SDS011;9570;50.854;13.778;2024-01-30T07:53:40;12.40;;;6.73;;
18875;SDS011;9570;50.854;13.778;2024-01-30T07:56:06;11.73;;;7.00;;
18875;SDS011;9570;50.854;13.778;2024-01-30T07:58:32;12.90;;;7.80;;
18875;SDS011;9570;50.854;13.778;2024-01-30T08:00:57;11.90;;;7.10;;
18875;SDS011;9570;50.854;13.778;2024-01-30T08:03:23;11.43;;;7.00;;
18875;SDS011;9570;50.854;13.778;2024-01-30T08:05:49;9.50;;;6.43;;
18875;SDS011;9570;50.854;13.778;2024-01-30T08:08:15;9.70;;;6.03;;
18875;SDS011;9570;50.854;13.778;2024-01-30T08:10:40;9.93;;;6.40;;
18875;SDS011;9570;50.854;13.778;2024-01-30T08:13:06;11.30;;;6.30;;
18875;SDS011;9570;50.854;13.778;2024-01-30T08:15:31;12.63;;;6.47;;
18875;SDS011;9570;50.854;13.778;2024-01-30T08:17:57;9.40;;;5.87;;
18875;SDS011;9570;50.854;13.778;2024-01-30T08:20:24;12.73;;;6.70;;
18875;SDS011;9570;50.854;13.778;2024-01-30T08:22:50;9.43;;;6.20;;
18875;SDS011;9570;50.854;13.778;2024-01-30T08:25:15;11.67;;;6.57;;
18875;SDS011;9570;50.854;13.778;2024-01-30T08:27:41;9.03;;;6.27;;
18875;SDS011;9570;50.854;13.778;2024-01-30T08:30:06;9.40;;;5.77;;
18875;SDS011;9570;50.854;13.778;2024-01-30T08:32:32;8.90;;;5.83;;
18875;SDS011;9570;50.854;13.778;2024-01-30T08:34:58;8.47;;;5.70;;
18875;SDS011;9570;50.854;13.778;2024-01-30T08:37:24;8.57;;;5.50;;
18875;SDS011;9570;50.854;13.778;2024-01-30T08:39:49;9.43;;;5.97;;
18875;SDS011;9570;50.854;13.778;2024-01-30T08:42:15;9.20;;;6.23;;
18875;SDS011;9570;50.854;13.778;2024-01-30T08:44:43;9.40;;;5.73;;
18875;SDS011;9570;50.854;13.778;2024-01-30T08:47:08;9.47;;;6.30;;
18875;SDS011;9570;50.854;13.778;2024-01-30T08:49:34;9.07;;;5.87;;
18875;SDS011;9570;50.854;13.778;2024-01-30T08:51:59;9.70;;;5.70;;
18875;SDS011;9570;50.854;13.778;2024-01-30T08:54:25;11.10;;;6.43;;
18875;SDS011;9570;50.854;13.778;2024-01-30T08:56:50;8.30;;;6.03;;
18875;SDS011;9570;50.854;13.778;2024-01-30T08:59:18;7.37;;;6.20;;
18875;SDS011;9570;50.854;13.778;2024-01-30T09:01:43;9.13;;;5.80;;
18875;SDS011;9570;50.854;13.778;2024-01-30T09:04:09;10.87;;;6.47;;
18875;SDS011;9570;50.854;13.778;2024-01-30T09:06:34;8.67;;;6.17;;
18875;SDS011;9570;50.854;13.778;2024-01-30T09:09:00;10.60;;;6.17;;
18875;SDS011;9570;50.854;13.778;2024-01-30T09:11:26;10.00;;;6.27;;
18875;SDS011;9570;50.854;13.778;2024-01-30T09:13:51;9.83;;;6.20;;
18875;SDS011;9570;50.854;13.778;2024-01-30T09:16:17;9.70;;;6.20;;
18875;SDS011;9570;50.854;13.778;2024-01-30T09:18:42;9.07;;;6.43;;
18875;SDS011;9570;50.854;13.778;2024-01-30T09:21:08;11.33;;;6.67;;
18875;SDS011;9570;50.854;13.778;2024-01-30T09:23:33;11.20;;;6.43;;
18875;SDS011;9570;50.854;13.778;2024-01-30T09:25:59;11.97;;;6.47;;
18875;SDS011;9570;50.854;13.778;2024-01-30T09:28:24;11.60;;;6.30;;
18875;SDS011;9570;50.854;13.778;2024-01-30T09:30:50;8.17;;;5.37;;
18875;SDS011;9570;50.854;13.778;2024-01-30T09:33:15;9.40;;;5.90;;
18875;SDS011;9570;50.854;13.778;2024-01-30T09:35:41;9.37;;;5.53;;
18875;SDS011;9570;50.854;13.778;2024-01-30T09:38:06;8.23;;;5.87;;
18875;SDS011;9570;50.854;13.778;2024-01-30T09:40:32;8.00;;;5.30;;
18875;SDS011;9570;50.854;13.778;2024-01-30T09:42:57;9.07;;;5.80;;
18875;SDS011;9570;50.854;13.778;2024-01-30T09:45:25;8.77;;;5.70;;
18875;SDS011;9570;50.854;13.778;2024-01-30T09:47:51;10.63;;;6.00;;
18875;SDS011;9570;50.854;13.778;2024-01-30T09:50:18;8.50;;;4.97;;
18875;SDS011;9570;50.854;13.778;2024-01-30T09:52:44;8.67;;;5.70;;
18875;SDS011;9570;50.854;13.778;2024-01-30T09:55:10;8.57;;;5.27;;
18875;SDS011;9570;50.854;13.778;2024-01-30T09:57:36;7.70;;;5.27;;
18875;SDS011;9570;50.854;13.778;2024-01-30T10:00:02;7.77;;;5.10;;
18875;SDS011;9570;50.854;13.778;2024-01-30T10:02:29;8.73;;;5.30;;
18875;SDS011;9570;50.854;13.778;2024-01-30T10:04:56;7.87;;;5.37;;
18875;SDS011;9570;50.854;13.778;2024-01-30T10:07:21;7.10;;;5.43;;
18875;SDS011;9570;50.854;13.778;2024-01-30T10:09:48;8.73;;;5.43;;
18875;SDS011;9570;50.854;13.778;2024-01-30T10:12:14;7.70;;;5.10;;
18875;SDS011;9570;50.854;13.778;2024-01-30T10:14:40;11.33;;;5.50;;
18875;SDS011;9570;50.854;13.778;2024-01-30T10:17:10;7.90;;;5.00;;
18875;SDS011;9570;50.854;13.778;2024-01-30T10:19:40;7.83;;;5.00;;
18875;SDS011;9570;50.854;13.778;2024-01-30T10:22:06;7.43;;;5.40;;
18875;SDS011;9570;50.854;13.778;2024-01-30T10:24:35;6.57;;;5.00;;
18875;SDS011;9570;50.854;13.778;2024-01-30T10:27:01;7.57;;;4.80;;
18875;SDS011;9570;50.854;13.778;2024-01-30T10:29:27;9.03;;;5.07;;
18875;SDS011;9570;50.854;13.778;2024-01-30T10:32:00;6.50;;;5.03;;
18875;SDS011;9570;50.854;13.778;2024-01-30T10:34:26;5.60;;;4.77;;
18875;SDS011;9570;50.854;13.778;2024-01-30T10:36:55;7.53;;;4.50;;
18875;SDS011;9570;50.854;13.778;2024-01-30T10:39:38;5.93;;;4.50;;
18875;SDS011;9570;50.854;13.778;2024-01-30T10:42:05;7.07;;;4.60;;
18875;SDS011;9570;50.854;13.778;2024-01-30T10:44:45;9.83;;;5.10;;
18875;SDS011;9570;50.854;13.778;2024-01-30T10:47:21;7.60;;;4.10;;
18875;SDS011;9570;50.854;13.778;2024-01-30T10:49:51;6.57;;;4.73;;
18875;SDS011;9570;50.854;13.778;2024-01-30T10:52:18;7.50;;;4.40;;
18875;SDS011;9570;50.854;13.778;2024-01-30T10:54:45;5.63;;;4.60;;
18875;SDS011;9570;50.854;13.778;2024-01-30T10:57:12;7.43;;;4.87;;
18875;SDS011;9570;50.854;13.778;2024-01-30T10:59:39;9.67;;;4.83;;
18875;SDS011;9570;50.854;13.778;2024-01-30T11:02:06;6.63;;;4.63;;
18875;SDS011;9570;50.854;13.778;2024-01-30T11:04:35;10.03;;;5.00;;
18875;SDS011;9570;50.854;13.778;2024-01-30T11:07:01;7.33;;;4.80;;
18875;SDS011;9570;50.854;13.778;2024-01-30T11:09:29;7.90;;;4.47;;
18875;SDS011;9570;50.854;13.778;2024-01-30T11:11:57;7.17;;;4.63;;
18875;SDS011;9570;50.854;13.778;2024-01-30T11:14:25;7.53;;;4.73;;
18875;SDS011;9570;50.854;13.778;2024-01-30T11:16:51;9.73;;;5.20;;
18875;SDS011;9570;50.854;13.778;2024-01-30T11:19:23;7.97;;;5.40;;
18875;SDS011;9570;50.854;13.778;2024-01-30T11:21:51;7.70;;;5.07;;
18875;SDS011;9570;50.854;13.778;2024-01-30T11:24:21;7.63;;;5.50;;
18875;SDS011;9570;50.854;13.778;2024-01-30T11:26:56;9.03;;;5.43;;
18875;SDS011;9570;50.854;13.778;2024-01-30T11:29:29;8.23;;;5.77;;
18875;SDS011;9570;50.854;13.778;2024-01-30T11:31:55;9.13;;;5.13;;
18875;SDS011;9570;50.854;13.778;2024-01-30T11:34:22;8.90;;;5.10;;
18875;SDS011;9570;50.854;13.778;2024-01-30T11:36:48;8.20;;;5.23;;
18875;SDS011;9570;50.854;13.778;2024-01-30T11:39:27;7.60;;;5.00;;
18875;SDS011;9570;50.854;13.778;2024-01-30T11:41:54;7.57;;;5.00;;
18875;SDS011;9570;50.854;13.778;2024-01-30T11:44:20;7.77;;;5.37;;
18875;SDS011;9570;50.854;13.778;2024-01-30T11:46:50;7.30;;;4.73;;
18875;SDS011;9570;50.854;13.778;2024-01-30T11:49:16;9.07;;;5.30;;
18875;SDS011;9570;50.854;13.778;2024-01-30T11:51:42;9.47;;;5.40;;
18875;SDS011;9570;50.854;13.778;2024-01-30T11:54:10;7.83;;;5.33;;
18875;SDS011;9570;50.854;13.778;2024-01-30T11:56:36;12.00;;;5.77;;
18875;SDS011;9570;50.854;13.778;2024-01-30T11:59:03;9.17;;;5.57;;
18875;SDS011;9570;50.854;13.778;2024-01-30T12:01:29;10.03;;;5.30;;
18875;SDS011;9570;50.854;13.778;2024-01-30T12:03:55;7.70;;;5.00;;
18875;SDS011;9570;50.854;13.778;2024-01-30T12:06:21;7.97;;;5.40;;
18875;SDS011;9570;50.854;13.778;2024-01-30T12:11:24;7.33;;;5.20;;
18875;SDS011;9570;50.854;13.778;2024-01-30T12:13:49;7.47;;;5.07;;
18875;SDS011;9570;50.854;13.778;2024-01-30T12:16:16;8.60;;;5.37;;
18875;SDS011;9570;50.854;13.778;2024-01-30T12:18:42;7.23;;;5.33;;
18875;SDS011;9570;50.854;13.778;2024-01-30T12:21:07;8.47;;;5.43;;
18875;SDS011;9570;50.854;13.778;2024-01-30T12:23:34;9.80;;;5.40;;
18875;SDS011;9570;50.854;13.778;2024-01-30T12:26:00;7.27;;;5.27;;
18875;SDS011;9570;50.854;13.778;2024-01-30T12:28:27;8.60;;;6.00;;
18875;SDS011;9570;50.854;13.778;2024-01-30T12:30:56;7.53;;;5.70;;
18875;SDS011;9570;50.854;13.778;2024-01-30T12:33:24;9.37;;;6.03;;
18875;SDS011;9570;50.854;13.778;2024-01-30T12:35:51;9.57;;;5.83;;
18875;SDS011;9570;50.854;13.778;2024-01-30T12:38:17;9.43;;;6.10;;
18875;SDS011;9570;50.854;13.778;2024-01-30T12:40:42;8.40;;;5.80;;
18875;SDS011;9570;50.854;13.778;2024-01-30T12:43:09;9.37;;;5.53;;
18875;SDS011;9570;50.854;13.778;2024-01-30T12:45:35;9.40;;;5.57;;
18875;SDS011;9570;50.854;13.778;2024-01-30T12:48:01;10.33;;;5.47;;
18875;SDS011;9570;50.854;13.778;2024-01-30T12:50:27;9.27;;;6.07;;
18875;SDS011;9570;50.854;13.778;2024-01-30T12:52:52;8.30;;;6.03;;
18875;SDS011;9570;50.854;13.778;2024-01-30T12:55:18;7.70;;;5.70;;
18875;SDS011;9570;50.854;13.778;2024-01-30T12:57:43;11.07;;;6.47;;
18875;SDS011;9570;50.854;13.778;2024-01-30T13:00:09;10.53;;;6.40;;
18875;SDS011;9570;50.854;13.778;2024-01-30T13:02:35;11.27;;;6.87;;
18875;SDS011;9570;50.854;13.778;2024-01-30T13:05:04;9.40;;;6.40;;
18875;SDS011;9570;50.854;13.778;2024-01-30T13:07:30;9.53;;;6.53;;
18875;SDS011;9570;50.854;13.778;2024-01-30T13:09:56;9.80;;;6.17;;
18875;SDS011;9570;50.854;13.778;2024-01-30T13:12:28;9.43;;;6.13;;
18875;SDS011;9570;50.854;13.778;2024-01-30T13:14:54;14.87;;;6.27;;
18875;SDS011;9570;50.854;13.778;2024-01-30T13:17:20;9.57;;;5.77;;
18875;SDS011;9570;50.854;13.778;2024-01-30T13:19:46;11.93;;;5.87;;
18875;SDS011;9570;50.854;13.778;2024-01-30T13:22:13;8.93;;;5.53;;
18875;SDS011;9570;50.854;13.778;2024-01-30T13:24:39;8.77;;;5.73;;
18875;SDS011;9570;50.854;13.778;2024-01-30T13:27:04;8.80;;;5.90;;
18875;SDS011;9570;50.854;13.778;2024-01-30T13:29:31;9.50;;;6.43;;
18875;SDS011;9570;50.854;13.778;2024-01-30T13:31:57;7.73;;;5.63;;
18875;SDS011;9570;50.854;13.778;2024-01-30T13:34:22;7.73;;;5.83;;
18875;SDS011;9570;50.854;13.778;2024-01-30T13:36:48;6.53;;;4.43;;
18875;SDS011;9570;50.854;13.778;2024-01-30T13:39:14;10.00;;;5.90;;
18875;SDS011;9570;50.854;13.778;2024-01-30T13:41:41;7.70;;;5.30;;
18875;SDS011;9570;50.854;13.778;2024-01-30T13:44:07;7.73;;;5.03;;
18875;SDS011;9570;50.854;13.778;2024-01-30T13:46:33;7.83;;;4.87;;
18875;SDS011;9570;50.854;13.778;2024-01-30T13:48:59;7.63;;;5.37;;
18875;SDS011;9570;50.854;13.778;2024-01-30T13:51:24;8.10;;;5.30;;
18875;SDS011;9570;50.854;13.778;2024-01-30T13:53:50;9.70;;;5.47;;
18875;SDS011;9570;50.854;13.778;2024-01-30T13:56:15;8.97;;;6.27;;
18875;SDS011;9570;50.854;13.778;2024-01-30T13:58:41;9.83;;;5.70;;
18875;SDS011;9570;50.854;13.778;2024-01-30T14:01:07;8.63;;;5.07;;
18875;SDS011;9570;50.854;13.778;2024-01-30T14:03:32;9.97;;;5.40;;
18875;SDS011;9570;50.854;13.778;2024-01-30T14:05:58;8.83;;;5.60;;
18875;SDS011;9570;50.854;13.778;2024-01-30T14:08:24;8.13;;;5.33;;
18875;SDS011;9570;50.854;13.778;2024-01-30T14:10:52;9.83;;;6.30;;
18875;SDS011;9570;50.854;13.778;2024-01-30T14:13:18;11.17;;;6.63;;
18875;SDS011;9570;50.854;13.778;2024-01-30T14:15:44;10.10;;;6.17;;
18875;SDS011;9570;50.854;13.778;2024-01-30T14:18:10;13.17;;;6.37;;
18875;SDS011;9570;50.854;13.778;2024-01-30T14:20:36;10.03;;;7.03;;
18875;SDS011;9570;50.854;13.778;2024-01-30T14:23:01;13.83;;;7.03;;
18875;SDS011;9570;50.854;13.778;2024-01-30T14:25:27;10.87;;;7.03;;
18875;SDS011;9570;50.854;13.778;2024-01-30T14:27:52;11.07;;;7.37;;
18875;SDS011;9570;50.854;13.778;2024-01-30T14:30:18;12.47;;;7.50;;
18875;SDS011;9570;50.854;13.778;2024-01-30T14:32:43;9.60;;;6.70;;
18875;SDS011;9570;50.854;13.778;2024-01-30T14:35:10;14.33;;;7.87;;